createdAt,value
2022-10-13T00:45:20.368Z,21.30
2022-10-13T00:47:51.513Z,24.10
2022-10-13T00:52:52.626Z,23.65
2022-10-13T00:55:25.255Z,21.40
2022-10-13T00:57:56.322Z,25.15
2022-10-13T01:00:30.895Z,20.58
2022-10-13T01:02:58.364Z,21.42
2022-10-13T01:05:25.807Z,20.83
2022-10-13T01:07:57.372Z,19.73
2022-10-13T01:10:40.353Z,20.80
2022-10-13T01:13:17.938Z,22.75
2022-10-13T01:15:52.457Z,19.52
2022-10-13T01:18:27.160Z,26.27
2022-10-13T01:21:24.784Z,20.67
2022-10-13T01:24:25.364Z,24.40
2022-10-13T01:27:05.802Z,21.83
2022-10-13T01:30:06.442Z,20.15
2022-10-13T01:32:57.343Z,18.75
2022-10-13T01:38:03.116Z,21.58
2022-10-13T01:40:38.437Z,21.40
2022-10-13T01:43:10.705Z,24.83
2022-10-13T01:45:44.611Z,26.90
2022-10-13T01:53:57.076Z,24.92
2022-10-13T01:56:24.201Z,20.48
2022-10-13T01:58:53.280Z,21.13
2022-10-13T02:01:33.148Z,19.13
2022-10-13T02:04:09.980Z,21.13
2022-10-13T02:06:41.561Z,22.17
2022-10-13T02:09:14.970Z,19.75
2022-10-13T02:11:49.540Z,21.83
2022-10-13T02:14:22.097Z,19.15
2022-10-13T02:16:50.892Z,21.63
2022-10-13T02:19:19.034Z,16.95
2022-10-13T02:21:47.036Z,24.98
2022-10-13T02:24:15.840Z,23.23
2022-10-13T02:26:43.018Z,19.30
2022-10-13T02:29:13.057Z,23.42
2022-10-13T02:31:41.278Z,25.17
2022-10-13T02:34:08.753Z,22.35
2022-10-13T02:36:37.870Z,19.75
2022-10-13T02:39:06.447Z,17.88
2022-10-13T02:41:35.190Z,27.45
2022-10-13T02:44:02.235Z,24.33
2022-10-13T02:46:34.402Z,23.98
2022-10-13T02:49:01.861Z,24.90
2022-10-13T02:51:29.126Z,21.52
2022-10-13T02:53:56.140Z,24.58
2022-10-13T02:56:23.158Z,20.02
2022-10-13T02:58:51.834Z,21.35
2022-10-13T03:01:19.480Z,25.20
2022-10-13T03:03:46.817Z,20.75
2022-10-13T03:06:14.045Z,21.50
2022-10-13T03:13:36.921Z,25.33
2022-10-13T03:16:08.605Z,21.23
2022-10-13T03:18:36.057Z,22.88
2022-10-13T03:58:09.958Z,25.10
2022-10-13T04:05:33.533Z,19.15
2022-10-13T04:10:28.924Z,22.70
2022-10-13T04:12:56.182Z,24.45
2022-10-13T04:15:23.605Z,22.75
2022-10-13T04:22:45.252Z,18.70
2022-10-13T04:25:13.887Z,20.88
2022-10-13T04:27:41.206Z,21.48
2022-10-13T04:30:13.339Z,23.08
2022-10-13T04:32:40.599Z,29.58
2022-10-13T04:35:09.373Z,23.20
2022-10-13T04:37:36.346Z,22.08
2022-10-13T04:40:03.634Z,22.40
2022-10-13T04:42:32.252Z,24.60
2022-10-13T04:44:59.260Z,21.40
2022-10-13T04:47:26.317Z,24.58
2022-10-13T04:49:53.285Z,23.35
2022-10-13T04:52:20.707Z,26.75
2022-10-13T04:54:49.236Z,23.67
2022-10-13T04:57:16.209Z,21.73
2022-10-13T04:59:44.548Z,21.50
2022-10-13T05:02:11.818Z,24.10
2022-10-13T05:04:38.955Z,21.50
2022-10-13T05:07:17.549Z,25.58
2022-10-13T05:09:45.821Z,24.58
2022-10-13T05:12:13.390Z,20.58
2022-10-13T05:14:40.388Z,21.10
2022-10-13T05:17:09.339Z,22.95
2022-10-13T05:19:36.896Z,28.00
2022-10-13T05:22:04.030Z,23.45
2022-10-13T05:24:36.470Z,23.08
2022-10-13T05:27:05.804Z,23.75
2022-10-13T05:29:32.875Z,27.67
2022-10-13T05:31:59.879Z,21.50
2022-10-13T05:34:28.338Z,25.52
2022-10-13T05:36:55.380Z,19.35
2022-10-13T05:39:22.542Z,21.77
2022-10-13T05:41:50.030Z,22.88
2022-10-13T05:44:21.306Z,24.45
2022-10-13T05:46:57.478Z,23.08
2022-10-13T05:49:24.701Z,18.83
2022-10-13T05:51:55.829Z,22.58
2022-10-13T05:54:30.581Z,24.38
2022-10-13T05:57:02.871Z,21.67
2022-10-13T05:59:33.429Z,20.70
2022-10-13T06:02:02.083Z,22.38
2022-10-13T06:04:41.111Z,19.77
2022-10-13T06:07:10.703Z,24.48
2022-10-13T06:09:39.011Z,20.52
2022-10-13T06:12:07.006Z,20.67
2022-10-13T06:14:34.151Z,25.52
2022-10-13T06:17:06.906Z,24.50
2022-10-13T06:19:34.116Z,25.50
2022-10-13T06:22:09.279Z,27.33
2022-10-13T06:24:36.470Z,26.27
2022-10-13T06:27:06.039Z,24.85
2022-10-13T06:29:33.967Z,28.75
2022-10-13T06:32:01.065Z,27.55
2022-10-13T06:34:28.086Z,23.45
2022-10-13T06:36:55.766Z,28.58
2022-10-13T06:39:24.271Z,26.33
2022-10-13T06:41:52.900Z,22.77
2022-10-13T06:44:20.491Z,24.35
2022-10-13T06:46:47.530Z,24.33
2022-10-13T06:49:14.621Z,26.35
2022-10-13T06:51:41.957Z,23.67
2022-10-13T06:54:09.153Z,23.08
2022-10-13T06:56:37.543Z,28.92
2022-10-13T06:59:10.647Z,26.08
2022-10-13T07:01:41.511Z,22.52
2022-10-13T07:08:00.785Z,25.45
2022-10-13T07:10:27.937Z,22.95
2022-10-13T07:12:55.180Z,25.52
2022-10-13T07:15:24.790Z,21.08
2022-10-13T07:17:53.973Z,22.05
2022-10-13T07:20:21.622Z,24.90
2022-10-13T07:22:50.502Z,22.50
2022-10-13T07:25:19.791Z,24.20
2022-10-13T07:27:46.890Z,24.10
2022-10-13T07:30:14.011Z,27.98
2022-10-13T07:32:42.228Z,24.55
2022-10-13T07:35:10.355Z,30.30
2022-10-13T07:37:38.081Z,31.95
2022-10-13T07:40:07.659Z,35.30
2022-10-13T07:42:35.053Z,35.75
2022-10-13T07:45:02.427Z,36.03
2022-10-13T08:31:52.872Z,28.50
2022-10-13T08:34:21.044Z,26.15
2022-10-13T08:36:48.787Z,31.58
2022-10-13T08:39:15.831Z,28.77
2022-10-13T10:11:29.846Z,24.83
2022-10-13T10:13:57.638Z,25.20
2022-10-13T10:28:26.966Z,22.85
2022-10-13T10:31:00.642Z,21.05
2022-10-13T10:33:41.647Z,20.50
2022-10-13T10:36:16.927Z,18.10
2022-10-13T10:38:48.569Z,23.50
2022-10-13T10:41:31.553Z,22.55
2022-10-13T10:44:02.807Z,21.35
2022-10-13T10:46:34.871Z,20.10
2022-10-13T10:49:11.086Z,22.80
2022-10-13T10:51:39.400Z,23.35
2022-10-13T10:54:27.534Z,22.52
2022-10-13T10:57:00.816Z,26.42
2022-10-13T10:59:40.567Z,26.10
2022-10-13T11:02:30.377Z,22.75
2022-10-13T11:05:05.305Z,24.05
2022-10-13T11:07:58.727Z,25.30
2022-10-13T11:10:27.308Z,26.75
2022-10-13T11:13:17.007Z,22.13
2022-10-13T11:15:45.756Z,23.98
2022-10-13T11:18:50.196Z,24.08
2022-10-13T11:21:20.130Z,26.58
2022-10-13T11:23:49.300Z,27.92
2022-10-13T11:26:41.324Z,30.30
2022-10-13T11:29:19.633Z,26.20
2022-10-13T11:31:53.423Z,27.13
2022-10-13T11:34:30.760Z,28.52
2022-10-13T11:37:12.732Z,29.98
2022-10-13T11:40:01.124Z,26.17
2022-10-13T11:43:05.171Z,28.25
2022-10-13T11:45:53.468Z,30.75
2022-10-13T11:48:48.458Z,30.05
2022-10-13T11:51:25.982Z,29.75
2022-10-13T11:54:00.469Z,31.60
2022-10-13T11:56:39.394Z,34.38
2022-10-13T11:59:20.830Z,37.28
2022-10-13T12:01:50.969Z,28.65
2022-10-13T12:04:21.993Z,28.90
2022-10-13T12:06:55.348Z,33.33
2022-10-13T12:09:24.929Z,23.75
2022-10-13T12:12:01.031Z,27.83
2022-10-13T12:14:33.052Z,28.88
2022-10-13T12:17:01.582Z,26.63
2022-10-13T12:19:30.851Z,29.15
2022-10-13T12:21:59.785Z,27.50
2022-10-13T12:24:29.957Z,28.45
2022-10-13T12:26:58.015Z,26.58
2022-10-13T12:29:27.732Z,27.65
2022-10-13T12:31:55.364Z,30.90
2022-10-13T12:34:27.668Z,27.27
2022-10-13T12:36:57.813Z,28.63
2022-10-13T12:39:26.023Z,33.20
2022-10-13T12:41:56.215Z,38.78
2022-10-13T12:44:26.255Z,34.60
2022-10-13T12:46:56.325Z,32.50
2022-10-13T12:49:24.889Z,39.25
2022-10-13T12:51:54.818Z,32.75
2022-10-13T12:54:25.348Z,32.55
2022-10-13T12:56:56.579Z,40.10
2022-10-13T12:59:24.968Z,37.47
2022-10-13T13:01:57.994Z,36.28
2022-10-13T13:04:41.238Z,28.98
2022-10-13T13:07:28.348Z,31.38
2022-10-13T13:10:13.327Z,29.58
2022-10-13T13:12:42.505Z,31.33
2022-10-13T13:15:34.511Z,30.00
2022-10-13T13:18:25.077Z,26.73
2022-10-13T13:20:52.312Z,32.20
2022-10-13T13:23:20.058Z,26.30
2022-10-13T13:25:47.395Z,28.92
2022-10-13T13:28:16.577Z,25.77
2022-10-13T13:30:45.474Z,28.73
2022-10-13T13:33:12.675Z,30.23
2022-10-13T13:35:39.856Z,28.45
2022-10-13T13:38:07.034Z,29.98
2022-10-13T13:40:34.256Z,31.35
2022-10-13T13:43:01.280Z,31.73
2022-10-13T13:45:34.450Z,28.25
2022-10-13T13:48:02.784Z,32.80
2022-10-13T13:50:34.439Z,36.92
2022-10-13T13:53:01.730Z,29.00
2022-10-13T13:55:30.055Z,27.67
2022-10-13T13:57:57.669Z,25.58
2022-10-13T14:00:25.059Z,35.58
2022-10-13T14:02:57.170Z,33.40
2022-10-13T14:05:24.257Z,30.58
2022-10-13T14:07:54.125Z,27.77
2022-10-13T14:10:21.333Z,25.55
2022-10-13T14:12:48.532Z,32.70
2022-10-13T14:15:15.554Z,27.48
2022-10-13T14:17:42.774Z,27.60
2022-10-13T14:20:12.131Z,26.27
2022-10-13T14:22:40.212Z,26.02
2022-10-13T14:25:08.334Z,25.65
2022-10-13T14:27:36.978Z,31.63
2022-10-13T14:30:05.766Z,26.70
2022-10-13T14:32:33.238Z,22.92
2022-10-13T14:35:00.349Z,25.15
2022-10-13T14:37:33.056Z,25.65
2022-10-13T14:40:00.617Z,24.42
2022-10-13T14:42:27.660Z,21.70
2022-10-13T14:44:54.734Z,22.88
2022-10-13T14:47:22.055Z,24.55
2022-10-13T14:49:49.483Z,25.33
2022-10-13T14:52:16.455Z,27.60
2022-10-13T14:54:45.421Z,26.20
2022-10-13T14:57:15.907Z,26.25
2022-10-13T14:59:43.323Z,26.38
2022-10-13T15:02:10.941Z,28.70
2022-10-13T15:04:38.009Z,30.25
2022-10-13T15:07:05.018Z,23.35
2022-10-13T15:09:52.862Z,21.13
2022-10-13T15:12:25.058Z,21.88
2022-10-13T15:14:52.110Z,24.33
2022-10-13T15:17:19.159Z,26.58
2022-10-13T15:19:46.422Z,20.65
2022-10-13T15:22:13.564Z,23.73
2022-10-13T15:24:40.640Z,23.77
2022-10-13T15:27:07.761Z,25.58
2022-10-13T15:29:36.117Z,24.00
2022-10-13T15:32:09.586Z,25.58
2022-10-13T15:34:38.425Z,23.52
2022-10-13T15:37:05.521Z,26.58
2022-10-13T15:39:32.527Z,23.40
2022-10-13T15:41:59.560Z,24.17
2022-10-13T15:44:40.317Z,28.02
2022-10-13T15:47:17.698Z,25.40
2022-10-13T15:49:44.808Z,30.92
2022-10-13T15:52:12.353Z,27.90
2022-10-13T15:54:39.434Z,26.55
2022-10-13T15:57:06.440Z,25.98
2022-10-13T15:59:33.493Z,27.58
2022-10-13T16:02:00.701Z,25.13
2022-10-13T16:04:32.341Z,24.73
2022-10-13T16:07:02.396Z,26.88
2022-10-13T16:09:29.609Z,30.65
2022-10-13T16:11:56.941Z,31.60
2022-10-13T16:14:23.931Z,28.20
2022-10-13T16:16:50.934Z,32.85
2022-10-13T16:19:17.876Z,31.88
2022-10-13T16:21:47.048Z,31.48
2022-10-13T16:24:14.978Z,29.80
2022-10-13T16:26:42.357Z,27.75
2022-10-13T16:29:09.540Z,32.13
2022-10-13T16:31:36.553Z,29.20
2022-10-13T16:34:03.934Z,32.17
2022-10-13T16:36:31.266Z,30.30
2022-10-13T16:38:59.611Z,32.47
2022-10-13T16:41:26.619Z,33.40
2022-10-13T16:43:53.741Z,29.77
2022-10-13T16:46:21.129Z,31.08
2022-10-13T16:48:48.511Z,35.40
2022-10-13T17:35:44.552Z,37.97
2022-10-13T17:38:11.706Z,43.47
2022-10-13T17:40:38.789Z,36.28
2022-10-13T17:43:05.800Z,36.88
2022-10-13T17:45:32.889Z,37.63
2022-10-13T17:48:01.570Z,39.75
2022-10-13T18:00:19.465Z,38.22
2022-10-13T18:02:47.487Z,37.00
2022-10-13T18:05:16.982Z,43.08
2022-10-13T18:07:44.179Z,37.42
2022-10-13T18:10:11.361Z,38.28
2022-10-13T18:12:38.743Z,37.58
2022-10-13T18:15:07.041Z,39.13
2022-10-13T18:17:34.120Z,36.67
2022-10-13T18:20:01.233Z,34.58
2022-10-13T18:22:29.556Z,34.92
2022-10-13T18:24:59.010Z,34.22
2022-10-13T18:27:25.924Z,35.65
2022-10-13T18:29:52.948Z,34.10
2022-10-13T18:32:24.157Z,30.30
2022-10-13T18:34:51.138Z,33.33
2022-10-13T18:37:18.323Z,32.03
2022-10-13T18:39:48.228Z,29.08
2022-10-13T18:42:15.329Z,26.17
2022-10-13T18:44:42.566Z,25.25
2022-10-13T18:47:09.615Z,30.00
2022-10-13T18:49:37.220Z,28.88
2022-10-13T18:52:05.360Z,29.65
2022-10-13T18:54:32.559Z,31.38
2022-10-13T18:57:00.945Z,30.10
2022-10-13T18:59:28.001Z,29.08
2022-10-13T19:01:55.136Z,30.10
2022-10-13T19:04:23.225Z,31.85
2022-10-13T19:06:50.847Z,30.58
2022-10-13T19:09:17.939Z,30.63
2022-10-13T19:11:44.914Z,31.60
2022-10-13T19:16:46.304Z,28.80
2022-10-13T19:19:13.779Z,25.85
2022-10-13T19:21:41.248Z,27.05
2022-10-13T19:24:09.663Z,28.35
2022-10-13T19:26:37.653Z,24.92
2022-10-13T19:29:07.764Z,26.13
2022-10-13T19:31:38.597Z,26.45
2022-10-13T19:34:09.421Z,24.10
2022-10-13T19:36:39.238Z,26.48
2022-10-13T19:39:11.900Z,26.05
2022-10-13T19:41:39.339Z,24.02
2022-10-13T19:44:06.458Z,24.52
2022-10-13T19:46:40.023Z,26.27
2022-10-13T19:49:07.599Z,26.27
2022-10-13T19:51:35.932Z,26.40
2022-10-13T19:54:03.134Z,27.65
2022-10-13T19:56:34.122Z,28.83
2022-10-13T19:59:04.583Z,27.55
2022-10-13T20:01:32.796Z,26.65
2022-10-13T20:04:01.648Z,24.30
2022-10-13T20:06:28.891Z,29.20
2022-10-13T20:08:55.871Z,27.02
2022-10-13T20:11:24.282Z,26.63
2022-10-13T20:13:51.959Z,25.85
2022-10-13T20:16:21.477Z,28.30
2022-10-13T20:18:51.367Z,27.02
2022-10-13T20:21:19.740Z,32.92
2022-10-13T20:23:46.696Z,27.42
2022-10-13T20:26:14.420Z,25.20
2022-10-13T20:28:43.419Z,29.05
2022-10-13T20:31:12.582Z,27.85
2022-10-13T20:33:39.841Z,27.88
2022-10-13T20:36:09.568Z,28.73
2022-10-13T20:38:38.625Z,30.35
2022-10-13T20:41:06.695Z,32.63
2022-10-13T20:43:34.071Z,35.20
2022-10-13T20:46:02.260Z,35.03
2022-10-13T20:48:51.214Z,34.28
2022-10-13T20:51:21.614Z,38.95
2022-10-13T20:53:50.041Z,43.37
2022-10-13T20:56:19.337Z,41.97
2022-10-13T20:58:47.460Z,40.83
2022-10-13T21:01:14.857Z,39.35
2022-10-13T21:03:41.929Z,39.90
2022-10-13T21:06:11.535Z,46.28
2022-10-13T21:08:38.629Z,49.08
2022-10-13T21:11:08.827Z,49.00
2022-10-13T21:13:36.308Z,48.40
2022-10-13T21:16:08.522Z,52.38
2022-10-13T21:18:36.029Z,52.80
2022-10-13T21:21:04.526Z,55.65
2022-10-13T21:23:31.518Z,54.85
2022-10-13T21:26:02.061Z,62.45
2022-10-13T21:28:30.801Z,58.47
2022-10-13T21:31:02.452Z,60.85
2022-10-13T21:33:29.774Z,65.55
2022-10-13T21:35:57.898Z,67.32
2022-10-13T21:38:25.429Z,63.03
2022-10-13T21:40:53.987Z,63.13
2022-10-13T21:43:21.152Z,62.67
2022-10-13T21:45:49.435Z,65.97
2022-10-13T21:48:16.516Z,66.95
2022-10-13T21:50:43.559Z,69.28
2022-10-13T21:53:10.589Z,70.15
2022-10-13T21:55:37.517Z,69.30
2022-10-13T21:58:05.479Z,69.88
2022-10-13T22:00:33.144Z,75.22
2022-10-13T22:03:01.541Z,98.47
2022-10-13T22:05:28.719Z,112.68
2022-10-13T22:07:57.375Z,175.85
2022-10-13T22:10:24.380Z,240.30
2022-10-13T22:12:51.579Z,123.32
2022-10-13T22:15:18.558Z,97.65
2022-10-13T22:17:45.548Z,128.95
2022-10-13T22:20:13.940Z,106.10
2022-10-13T22:22:41.029Z,103.43
2022-10-13T22:25:08.964Z,187.02
2022-10-13T22:27:36.037Z,209.50
2022-10-13T22:30:03.370Z,217.23
2022-10-13T22:32:30.448Z,186.60
2022-10-13T22:34:57.391Z,176.50
2022-10-13T22:37:25.877Z,144.48
2022-10-13T22:39:52.833Z,246.40
2022-10-13T22:42:21.274Z,517.67
2022-10-13T22:44:48.245Z,406.02
2022-10-13T22:47:15.217Z,290.42
2022-10-13T22:49:42.321Z,211.70
2022-10-13T22:52:10.037Z,221.27
